Latest Weather Observations for Ben Nevis

IDV60801

Issued at 7:31 am EST Thursday 28 May 2015 (issued every 30 minutes, with the page automatically refreshed every 10 minutes)

About weather observations | Map of weather stations | Latest weather observations for VIC | Other Formats
Station Details ID: 079101 Name: BEN NEVIS Lat: -37.23 Lon: 143.20 Height: 875.0 m
Data from the previous 72 hours. | See also: Recent months at Ben Nevis
Date/Time
EST
Temp
°C
App
Temp
°C
Dew
Point
Rel
Hum
%
Delta-T
°C
Wind Press
QNH
hPa
Press
MSL
hPa
Rain
since 9 am
mm
Dir
 
Spd
km/h
Gust
km/h
Spd
kts
Gust
kts
28/07:30am 8.3 3.1 3.4 71 2.2 N 20 33 11 18 - - 0.0
28/07:00am 8.3 3.2 4.3 76 1.8 N 20 35 11 19 - - 0.0
28/06:30am 8.1 3.2 4.3 77 1.8 N 19 28 10 15 - - 0.0
28/06:00am 8.4 3.7 5.0 79 1.6 N 19 30 10 16 - - 0.0
28/05:30am 8.5 3.7 4.5 76 1.9 N 19 37 10 20 - - 0.0
28/05:00am 9.0 4.2 4.8 75 2.0 N 19 33 10 18 - - 0.0
28/04:30am 9.1 4.1 4.7 74 2.1 N 20 33 11 18 - - 0.0
28/04:00am 9.2 4.4 4.8 74 2.1 N 19 32 10 17 - - 0.0
28/03:30am 9.0 4.7 5.4 78 1.7 N 17 32 9 17 - - 0.0
28/03:00am 9.0 4.7 5.4 78 1.7 N 17 26 9 14 - - 0.0
28/02:30am 8.6 4.3 5.4 80 1.5 N 17 30 9 16 - - 0.0
28/02:00am 8.5 4.2 5.4 81 1.5 N 17 26 9 14 - - 0.0
28/01:30am 8.8 4.9 5.5 80 1.6 N 15 24 8 13 - - 0.0
28/01:00am 9.0 5.1 5.2 77 1.8 NNW 15 24 8 13 - - 0.0
28/12:30am 9.4 4.8 5.6 77 1.8 NNW 19 32 10 17 - - 0.0
28/12:00am 9.2 4.9 5.4 77 1.8 N 17 28 9 15 - - 0.0
 
Date/Time
EST
Temp
°C
App
Temp
°C
Dew
Point
Rel
Hum
%
Delta-T
°C
Wind Press
QNH
hPa
Press
MSL
hPa
Rain
since 9 am
mm
Dir
 
Spd
km/h
Gust
km/h
Spd
kts
Gust
kts
27/11:30pm 9.5 5.2 5.3 75 2.0 N 17 28 9 15 - - 0.0
27/11:00pm 9.6 6.1 5.4 75 2.0 NNW 13 26 7 14 - - 0.0
27/10:30pm 9.9 6.5 5.7 75 2.0 NNW 13 22 7 12 - - 0.0
27/10:00pm 10.0 6.5 5.6 74 2.1 NNW 13 24 7 13 - - 0.0
27/09:30pm 10.2 6.7 5.6 73 2.2 N 13 24 7 13 - - 0.0
27/09:00pm 10.1 7.4 5.5 73 2.2 NNW 9 26 5 14 - - 0.0
27/08:30pm 9.9 6.8 5.5 74 2.1 N 11 22 6 12 - - 0.0
27/08:00pm 9.9 7.2 5.5 74 2.1 N 9 17 5 9 - - 0.0
27/07:30pm 10.2 6.7 5.4 72 2.3 N 13 19 7 10 - - 0.0
27/07:00pm 10.4 7.3 5.6 72 2.3 N 11 20 6 11 - - 0.0
27/06:30pm 10.6 7.2 5.8 72 2.3 NNW 13 20 7 11 - - 0.0
27/06:00pm 10.5 7.8 5.5 71 2.4 NNE 9 20 5 11 - - 0.0
27/05:30pm 11.0 8.0 6.0 71 2.4 N 11 20 6 11 - - 0.0
27/05:00pm 11.6 9.2 7.1 74 2.3 N 9 20 5 11 - - 0.0
27/04:30pm 12.3 9.5 8.4 77 2.0 N 13 28 7 15 - - 0.0
27/04:00pm 12.3 9.1 8.6 78 1.9 N 15 30 8 16 - - 0.0
27/03:30pm 12.0 9.0 7.9 76 2.1 N 13 24 7 13 - - 0.0
27/03:00pm 13.4 10.6 8.7 73 2.5 NNW 13 20 7 11 - - 0.0
27/02:30pm 13.0 10.2 8.5 74 2.4 N 13 20 7 11 - - 0.0
27/02:00pm 13.8 11.1 8.8 72 2.6 N 13 26 7 14 - - 0.0
27/01:30pm 13.1 10.3 8.6 74 2.4 NNW 13 28 7 15 - - 0.0
27/01:00pm 13.8 10.9 8.2 69 2.9 NNW 13 22 7 12 - - 0.0
27/12:30pm 13.1 9.9 8.6 74 2.4 NNW 15 24 8 13 - - 0.0
27/12:00pm 12.6 9.7 8.3 75 2.2 N 13 22 7 12 - - 0.0
27/11:30am 12.1 9.2 8.0 76 2.1 N 13 20 7 11 - - 0.0
27/11:00am 11.8 8.5 8.1 78 1.9 N 15 24 8 13 - - 0.0
27/10:30am 11.0 7.8 8.4 84 1.3 N 15 24 8 13 - - 0.0
27/10:00am 9.6 6.7 8.2 91 0.7 N 13 22 7 12 - - 0.0
27/09:30am 8.5 5.0 7.0 90 0.7 N 15 24 8 13 - - 0.0
27/09:00am 8.6 5.1 7.2 91 0.7 N 15 30 8 16 - - 0.0
27/08:30am 8.2 4.3 7.0 92 0.6 N 17 32 9 17 - - 0.0
27/08:00am 8.0 4.4 6.6 91 0.7 N 15 24 8 13 - - 0.0
27/07:30am 8.2 4.6 6.8 91 0.7 N 15 24 8 13 - - 0.0
27/07:00am 8.1 4.1 6.7 91 0.7 N 17 24 9 13 - - 0.0
27/06:30am 7.6 3.1 6.1 90 0.7 N 19 33 10 18 - - 0.0
27/06:00am 8.0 3.6 6.5 90 0.7 N 19 32 10 17 - - 0.0
27/05:30am 8.4 3.7 6.2 86 1.1 N 20 35 11 19 - - 0.0
27/05:00am 8.6 4.2 6.4 86 1.1 N 19 35 10 19 - - 0.0
27/04:30am 8.5 4.0 6.3 86 1.1 N 19 28 10 15 - - 0.0
27/04:00am 8.7 4.1 6.3 85 1.2 N 20 35 11 19 - - 0.0
27/03:30am 8.8 3.7 6.2 84 1.3 NNE 22 41 12 22 - - 0.0
27/03:00am 8.8 3.7 6.1 83 1.3 N 22 35 12 19 - - 0.0
27/02:30am 8.8 3.7 5.9 82 1.4 N 22 43 12 23 - - 0.0
27/02:00am 9.1 3.6 6.0 81 1.5 N 24 41 13 22 - - 0.0
27/01:30am 8.8 3.6 5.4 79 1.6 N 22 43 12 23 - - 0.0
27/01:00am 8.9 3.7 5.3 78 1.7 N 22 35 12 19 - - 0.0
27/12:30am 8.8 3.1 5.0 77 1.8 N 24 37 13 20 - - 0.0
27/12:00am 8.6 3.3 5.0 78 1.7 N 22 39 12 21 - - 0.0
 
Date/Time
EST
Temp
°C
App
Temp
°C
Dew
Point
Rel
Hum
%
Delta-T
°C
Wind Press
QNH
hPa
Press
MSL
hPa
Rain
since 9 am
mm
Dir
 
Spd
km/h
Gust
km/h
Spd
kts
Gust
kts
26/11:30pm 8.4 2.7 5.0 79 1.6 NNE 24 39 13 21 - - 0.0
26/11:00pm 8.4 3.1 5.0 79 1.6 N 22 39 12 21 - - 0.0
26/10:30pm 8.7 3.0 5.1 78 1.7 N 24 50 13 27 - - 0.0
26/10:00pm 8.6 3.0 5.2 79 1.6 N 24 44 13 24 - - 0.0
26/09:30pm 8.7 3.5 5.3 79 1.6 N 22 44 12 24 - - 0.0
26/09:00pm 8.7 3.5 5.3 79 1.6 N 22 37 12 20 - - 0.0
26/08:30pm 8.8 3.5 5.2 78 1.7 N 22 35 12 19 - - 0.0
26/08:00pm 8.8 3.6 5.4 79 1.6 N 22 35 12 19 - - 0.0
26/07:30pm 8.4 4.1 5.3 81 1.5 NNE 17 32 9 17 - - 0.0
26/07:00pm 8.7 3.9 5.4 80 1.6 NNE 20 35 11 19 - - 0.0
26/06:30pm 8.3 3.5 5.4 82 1.4 NNE 20 33 11 18 - - 0.0
26/06:00pm 8.6 3.4 5.5 81 1.5 NNE 22 37 12 20 - - 0.0
26/05:30pm 8.5 3.7 5.6 82 1.4 NNE 20 33 11 18 - - 0.0
26/05:00pm 8.4 3.9 5.9 84 1.2 NNE 19 32 10 17 - - 0.0
26/04:30pm 8.8 4.6 5.9 82 1.4 N 17 26 9 14 - - 0.0
26/04:00pm 9.5 5.7 6.0 79 1.7 N 15 22 8 12 - - 0.0
26/03:30pm 10.4 7.2 6.9 79 1.7 N 13 20 7 11 - - 0.0
26/03:00pm 10.3 7.0 6.6 78 1.8 N 13 20 7 11 - - 0.0
26/02:30pm 10.5 7.2 6.3 75 2.1 N 13 24 7 13 - - 0.0
26/02:00pm 11.2 8.0 6.7 74 2.2 N 13 22 7 12 - - 0.0
26/01:30pm 11.2 8.0 6.7 74 2.2 N 13 24 7 13 - - 0.0
26/01:00pm 10.9 7.3 6.8 76 2.0 N 15 26 8 14 - - 0.0
26/12:30pm 10.1 7.2 6.3 77 1.9 N 11 20 6 11 - - 0.0
26/12:00pm 9.7 5.5 5.9 77 1.8 N 17 26 9 14 - - 0.0
26/11:30am 9.7 5.5 5.7 76 1.9 N 17 26 9 14 - - 0.0
26/11:00am 9.3 5.4 5.5 77 1.8 N 15 24 8 13 - - 0.0
26/10:30am 8.9 5.3 5.1 77 1.8 NNE 13 20 7 11 - - 0.0
26/10:00am 8.5 4.9 4.9 78 1.7 NNE 13 24 7 13 - - 0.0
26/09:30am 8.3 4.6 4.5 77 1.8 N 13 20 7 11 - - 0.0
26/09:00am 8.0 4.6 4.0 76 1.8 N 11 19 6 10 - - 0.0
26/08:30am 7.6 4.5 3.6 76 1.8 NNE 9 15 5 8 - - 0.0
26/08:00am 6.7 3.5 3.0 77 1.6 N 9 13 5 7 - - 0.0
26/07:30am 6.4 3.1 2.7 77 1.6 NNE 9 15 5 8 - - 0.0
26/07:00am 6.5 2.5 2.6 76 1.7 N 13 19 7 10 - - 0.0
26/06:30am 6.5 2.3 1.8 72 2.0 NNE 13 19 7 10 - - 0.0
26/06:00am 6.5 2.6 1.2 69 2.2 NE 11 15 6 8 - - 0.0
26/05:30am 6.2 2.2 0.3 66 2.4 NNE 11 15 6 8 - - 0.0
26/05:00am 5.6 1.9 0.2 68 2.2 NNE 9 15 5 8 - - 0.0
26/04:30am 5.6 1.6 0.2 68 2.2 NNE 11 15 6 8 - - 0.0
26/04:00am 6.1 1.8 1.2 71 2.1 NE 13 17 7 9 - - 0.0
26/03:30am 6.3 1.3 1.4 71 2.1 ENE 17 22 9 12 - - 0.0
26/03:00am 6.5 2.0 2.0 73 1.9 NE 15 20 8 11 - - 0.0
26/02:30am 6.7 1.9 2.6 75 1.8 NE 17 22 9 12 - - 0.0
26/02:00am 6.6 2.7 3.2 79 1.5 NE 13 20 7 11 - - 0.0
26/01:30am 6.5 2.3 3.7 82 1.3 NE 15 20 8 11 - - 0.0
26/01:00am 6.8 3.0 3.9 82 1.3 NE 13 19 7 10 - - 0.0
26/12:30am 6.7 2.5 4.0 83 1.2 ENE 15 20 8 11 - - 0.0
26/12:00am 7.0 3.0 4.7 85 1.1 ENE 15 19 8 10 - - 0.0
 
Date/Time
EST
Temp
°C
App
Temp
°C
Dew
Point
Rel
Hum
%
Delta-T
°C
Wind Press
QNH
hPa
Press
MSL
hPa
Rain
since 9 am
mm
Dir
 
Spd
km/h
Gust
km/h
Spd
kts
Gust
kts
25/11:30pm 6.5 3.2 4.3 86 1.0 NE 11 17 6 9 - - 0.0
25/11:00pm 6.0 2.5 3.7 85 1.0 NE 11 13 6 7 - - 0.0
25/10:30pm 5.3 2.6 3.8 90 0.7 NE 7 9 4 5 - - 0.0
25/10:00pm 5.5 2.8 3.8 89 0.8 N 7 9 4 5 - - 0.0
25/09:30pm 5.4 2.7 3.7 89 0.8 N 7 9 4 5 - - 0.0
25/09:00pm 5.7 2.7 4.0 89 0.8 N 9 15 5 8 - - 0.0
25/08:30pm 5.6 2.5 3.8 88 0.8 NNE 9 13 5 7 - - 0.0
25/08:00pm 5.8 2.8 4.0 88 0.8 NNE 9 15 5 8 - - 0.0
25/07:30pm 5.7 2.7 3.9 88 0.8 N 9 13 5 7 - - 0.0
25/07:00pm 6.0 2.9 3.7 85 1.0 N 9 11 5 6 - - 0.0
25/06:30pm 6.7 4.0 3.9 82 1.3 N 7 11 4 6 - - 0.0
25/06:00pm 7.0 4.4 4.0 81 1.4 NNW 7 11 4 6 - - 0.0
25/05:30pm 7.5 5.1 4.1 79 1.6 WNW 6 9 3 5 - - 0.0
25/05:00pm 8.2 5.9 4.6 78 1.7 N 6 9 3 5 - - 0.0
25/04:30pm 8.3 5.9 4.3 76 1.8 WNW 6 9 3 5 - - 0.0
25/04:00pm 9.1 6.7 4.5 73 2.1 NNW 6 11 3 6 - - 0.0
25/03:30pm 9.7 6.8 4.5 70 2.4 N 9 17 5 9 - - 0.0
25/03:00pm 10.3 7.3 4.2 66 2.9 NNW 9 17 5 9 - - 0.0
25/02:30pm 11.5 8.6 4.7 63 3.2 NNW 9 19 5 10 - - 0.0
25/02:00pm 11.6 8.8 5.3 65 3.1 NNW 9 20 5 11 - - 0.0
25/01:30pm 10.5 7.5 4.2 65 3.0 N 9 17 5 9 - - 0.0
25/01:00pm 9.9 6.9 4.3 68 2.6 N 9 17 5 9 - - 0.0
25/12:30pm 10.4 8.0 5.4 71 2.4 N 7 13 4 7 - - 0.0
25/12:00pm 9.5 6.5 4.3 70 2.4 N 9 15 5 8 - - 0.0
25/11:30am 9.9 6.1 4.1 67 2.7 NNW 13 20 7 11 - - 0.0
25/11:00am 10.2 6.4 3.9 65 2.9 NNW 13 20 7 11 - - 0.0
25/10:30am 9.5 5.3 3.9 68 2.6 N 15 20 8 11 - - 0.0
25/10:00am 8.4 4.5 3.5 71 2.2 N 13 24 7 13 - - 0.0
25/09:30am 7.5 4.0 3.4 75 1.8 N 11 17 6 9 - - 0.0
25/09:00am 7.0 3.1 3.4 78 1.6 N 13 26 7 14 - - 0.0
25/08:30am 6.8 2.9 3.4 79 1.5 N 13 20 7 11 - - 0.0
25/08:00am 6.4 2.5 3.4 81 1.3 N 13 20 7 11 - - 0.0

Other Formats:

Comma delimited format used in spreadsheet applications
http://www.bom.gov.au/fwo/IDV60801/IDV60801.94835.axf

JavaScript Object Notation format (JSON) in row-major order
http://www.bom.gov.au/fwo/IDV60801/IDV60801.94835.json